sensor_id;sensor_type;location;lat;lon;timestamp;temperature;humidity
78694;SHT31;68029;51.978;5.646;2023-04-12T00:01:32;11.5;67.3
78694;SHT31;68029;51.978;5.646;2023-04-12T00:04:02;11.4;67.8
78694;SHT31;68029;51.978;5.646;2023-04-12T00:06:31;11.4;68.3
78694;SHT31;68029;51.978;5.646;2023-04-12T00:09:01;11.3;69.2
78694;SHT31;68029;51.978;5.646;2023-04-12T00:11:31;11.3;69.1
78694;SHT31;68029;51.978;5.646;2023-04-12T00:14:00;11.2;69.9
78694;SHT31;68029;51.978;5.646;2023-04-12T00:16:30;11.2;70.4
78694;SHT31;68029;51.978;5.646;2023-04-12T00:18:59;11.1;70.5
78694;SHT31;68029;51.978;5.646;2023-04-12T00:21:29;11.1;71.0
78694;SHT31;68029;51.978;5.646;2023-04-12T00:23:59;11.0;71.3
78694;SHT31;68029;51.978;5.646;2023-04-12T00:26:30;11.0;71.6
78694;SHT31;68029;51.978;5.646;2023-04-12T00:29:00;10.9;71.9
78694;SHT31;68029;51.978;5.646;2023-04-12T00:31:30;10.9;72.0
78694;SHT31;68029;51.978;5.646;2023-04-12T00:33:59;10.9;72.0
78694;SHT31;68029;51.978;5.646;2023-04-12T00:36:29;10.8;72.2
78694;SHT31;68029;51.978;5.646;2023-04-12T00:38:58;10.8;72.6
78694;SHT31;68029;51.978;5.646;2023-04-12T00:41:30;10.7;72.6
78694;SHT31;68029;51.978;5.646;2023-04-12T00:44:00;10.7;72.5
78694;SHT31;68029;51.978;5.646;2023-04-12T00:46:29;10.7;73.0
78694;SHT31;68029;51.978;5.646;2023-04-12T00:48:59;10.6;72.9
78694;SHT31;68029;51.978;5.646;2023-04-12T00:51:31;10.5;73.8
78694;SHT31;68029;51.978;5.646;2023-04-12T00:54:02;10.5;74.5
78694;SHT31;68029;51.978;5.646;2023-04-12T00:56:32;10.5;74.3
78694;SHT31;68029;51.978;5.646;2023-04-12T00:59:03;10.5;74.4
78694;SHT31;68029;51.978;5.646;2023-04-12T01:01:35;10.4;74.5
78694;SHT31;68029;51.978;5.646;2023-04-12T01:04:07;10.4;74.7
78694;SHT31;68029;51.978;5.646;2023-04-12T01:06:53;10.4;74.8
78694;SHT31;68029;51.978;5.646;2023-04-12T01:09:42;10.4;74.9
78694;SHT31;68029;51.978;5.646;2023-04-12T01:12:23;10.3;74.8
78694;SHT31;68029;51.978;5.646;2023-04-12T01:15:00;10.3;75.0
78694;SHT31;68029;51.978;5.646;2023-04-12T01:17:36;10.2;75.2
78694;SHT31;68029;51.978;5.646;2023-04-12T01:20:10;10.2;75.7
78694;SHT31;68029;51.978;5.646;2023-04-12T01:23:10;10.2;76.0
78694;SHT31;68029;51.978;5.646;2023-04-12T01:25:58;10.1;75.8
78694;SHT31;68029;51.978;5.646;2023-04-12T01:28:37;10.1;76.2
78694;SHT31;68029;51.978;5.646;2023-04-12T01:31:07;10.1;76.4
78694;SHT31;68029;51.978;5.646;2023-04-12T01:33:40;10.1;76.1
78694;SHT31;68029;51.978;5.646;2023-04-12T01:36:16;10.0;76.1
78694;SHT31;68029;51.978;5.646;2023-04-12T01:38:47;10.0;76.0
78694;SHT31;68029;51.978;5.646;2023-04-12T01:41:20;10.0;76.2
78694;SHT31;68029;51.978;5.646;2023-04-12T01:43:50;10.0;76.2
78694;SHT31;68029;51.978;5.646;2023-04-12T01:46:21;10.0;76.4
78694;SHT31;68029;51.978;5.646;2023-04-12T01:48:52;9.9;76.7
78694;SHT31;68029;51.978;5.646;2023-04-12T01:51:32;9.9;76.4
78694;SHT31;68029;51.978;5.646;2023-04-12T01:54:07;9.9;76.6
78694;SHT31;68029;51.978;5.646;2023-04-12T01:56:43;9.9;77.0
78694;SHT31;68029;51.978;5.646;2023-04-12T01:59:17;9.9;76.8
78694;SHT31;68029;51.978;5.646;2023-04-12T02:01:49;9.8;77.1
78694;SHT31;68029;51.978;5.646;2023-04-12T02:04:20;9.8;77.1
78694;SHT31;68029;51.978;5.646;2023-04-12T02:06:52;9.8;77.3
78694;SHT31;68029;51.978;5.646;2023-04-12T02:09:22;9.8;77.7
78694;SHT31;68029;51.978;5.646;2023-04-12T02:11:52;9.8;77.4
78694;SHT31;68029;51.978;5.646;2023-04-12T02:14:22;9.8;77.5
78694;SHT31;68029;51.978;5.646;2023-04-12T02:16:53;9.8;77.8
78694;SHT31;68029;51.978;5.646;2023-04-12T02:19:24;9.8;77.8
78694;SHT31;68029;51.978;5.646;2023-04-12T02:21:54;9.8;77.9
78694;SHT31;68029;51.978;5.646;2023-04-12T02:24:23;9.8;78.1
78694;SHT31;68029;51.978;5.646;2023-04-12T02:26:53;9.7;78.0
78694;SHT31;68029;51.978;5.646;2023-04-12T02:29:23;9.7;77.8
78694;SHT31;68029;51.978;5.646;2023-04-12T02:31:53;9.7;76.8
78694;SHT31;68029;51.978;5.646;2023-04-12T02:34:22;9.7;77.1
78694;SHT31;68029;51.978;5.646;2023-04-12T02:36:52;9.7;76.6
78694;SHT31;68029;51.978;5.646;2023-04-12T02:39:21;9.7;76.5
78694;SHT31;68029;51.978;5.646;2023-04-12T02:41:51;9.7;76.9
78694;SHT31;68029;51.978;5.646;2023-04-12T02:44:20;9.7;76.9
78694;SHT31;68029;51.978;5.646;2023-04-12T02:46:50;9.7;76.9
78694;SHT31;68029;51.978;5.646;2023-04-12T02:49:19;9.7;77.0
78694;SHT31;68029;51.978;5.646;2023-04-12T02:51:49;9.7;76.8
78694;SHT31;68029;51.978;5.646;2023-04-12T02:54:18;9.7;77.1
78694;SHT31;68029;51.978;5.646;2023-04-12T02:56:48;9.7;77.0
78694;SHT31;68029;51.978;5.646;2023-04-12T02:59:17;9.7;77.1
78694;SHT31;68029;51.978;5.646;2023-04-12T03:01:47;9.7;77.1
78694;SHT31;68029;51.978;5.646;2023-04-12T03:04:16;9.7;77.1
78694;SHT31;68029;51.978;5.646;2023-04-12T03:06:46;9.7;77.5
78694;SHT31;68029;51.978;5.646;2023-04-12T03:09:20;9.7;77.3
78694;SHT31;68029;51.978;5.646;2023-04-12T03:11:52;9.7;77.4
78694;SHT31;68029;51.978;5.646;2023-04-12T03:14:21;9.6;77.5
78694;SHT31;68029;51.978;5.646;2023-04-12T03:16:50;9.6;77.9
78694;SHT31;68029;51.978;5.646;2023-04-12T03:19:20;9.6;77.6
78694;SHT31;68029;51.978;5.646;2023-04-12T03:21:49;9.6;78.4
78694;SHT31;68029;51.978;5.646;2023-04-12T03:24:19;9.6;78.4
78694;SHT31;68029;51.978;5.646;2023-04-12T07:14:57;10.8;79.4
78694;SHT31;68029;51.978;5.646;2023-04-12T07:17:27;10.7;79.5
78694;SHT31;68029;51.978;5.646;2023-04-12T07:19:56;10.7;79.5
78694;SHT31;68029;51.978;5.646;2023-04-12T07:22:26;10.6;80.2
78694;SHT31;68029;51.978;5.646;2023-04-12T07:24:55;10.6;81.0
78694;SHT31;68029;51.978;5.646;2023-04-12T07:27:25;10.5;81.2
78694;SHT31;68029;51.978;5.646;2023-04-12T07:29:56;10.5;81.7
78694;SHT31;68029;51.978;5.646;2023-04-12T07:32:26;10.5;81.8
78694;SHT31;68029;51.978;5.646;2023-04-12T07:34:56;10.5;81.5
78694;SHT31;68029;51.978;5.646;2023-04-12T07:37:25;10.5;81.8
78694;SHT31;68029;51.978;5.646;2023-04-12T07:39:55;10.5;81.8
78694;SHT31;68029;51.978;5.646;2023-04-12T07:42:24;10.5;82.5
78694;SHT31;68029;51.978;5.646;2023-04-12T07:44:55;10.6;83.2
78694;SHT31;68029;51.978;5.646;2023-04-12T07:47:25;10.6;82.7
78694;SHT31;68029;51.978;5.646;2023-04-12T07:49:54;10.6;83.6
78694;SHT31;68029;51.978;5.646;2023-04-12T07:52:25;10.7;83.7
78694;SHT31;68029;51.978;5.646;2023-04-12T07:54:56;10.7;82.9
78694;SHT31;68029;51.978;5.646;2023-04-12T07:57:25;10.8;82.3
78694;SHT31;68029;51.978;5.646;2023-04-12T07:59:55;10.8;81.4
78694;SHT31;68029;51.978;5.646;2023-04-12T08:02:24;10.8;81.2
78694;SHT31;68029;51.978;5.646;2023-04-12T08:04:54;10.9;79.5
78694;SHT31;68029;51.978;5.646;2023-04-12T08:07:23;10.9;80.7
78694;SHT31;68029;51.978;5.646;2023-04-12T08:09:53;10.9;80.5
78694;SHT31;68029;51.978;5.646;2023-04-12T08:12:23;10.9;80.2
78694;SHT31;68029;51.978;5.646;2023-04-12T08:14:52;11.0;79.9
78694;SHT31;68029;51.978;5.646;2023-04-12T08:17:22;11.0;80.6
78694;SHT31;68029;51.978;5.646;2023-04-12T08:19:54;11.1;80.3
78694;SHT31;68029;51.978;5.646;2023-04-12T08:22:24;11.2;79.4
78694;SHT31;68029;51.978;5.646;2023-04-12T08:24:54;11.2;78.9
78694;SHT31;68029;51.978;5.646;2023-04-12T08:27:27;11.3;79.4
78694;SHT31;68029;51.978;5.646;2023-04-12T08:30:00;11.4;79.8
78694;SHT31;68029;51.978;5.646;2023-04-12T08:32:29;11.4;79.0
78694;SHT31;68029;51.978;5.646;2023-04-12T08:34:59;11.5;77.7
78694;SHT31;68029;51.978;5.646;2023-04-12T08:37:28;11.6;76.6
78694;SHT31;68029;51.978;5.646;2023-04-12T08:40:01;11.6;76.7
78694;SHT31;68029;51.978;5.646;2023-04-12T08:42:33;11.6;76.9
78694;SHT31;68029;51.978;5.646;2023-04-12T08:45:07;11.7;77.5
78694;SHT31;68029;51.978;5.646;2023-04-12T08:47:39;11.7;78.7
78694;SHT31;68029;51.978;5.646;2023-04-12T08:50:12;11.7;79.0
78694;SHT31;68029;51.978;5.646;2023-04-12T08:52:43;11.8;79.3
78694;SHT31;68029;51.978;5.646;2023-04-12T08:55:12;12.0;80.1
78694;SHT31;68029;51.978;5.646;2023-04-12T08:57:42;12.2;76.3
78694;SHT31;68029;51.978;5.646;2023-04-12T09:00:14;12.3;76.2
78694;SHT31;68029;51.978;5.646;2023-04-12T09:02:45;12.5;76.7
78694;SHT31;68029;51.978;5.646;2023-04-12T09:05:16;12.6;75.9
78694;SHT31;68029;51.978;5.646;2023-04-12T09:07:46;12.7;75.8
78694;SHT31;68029;51.978;5.646;2023-04-12T09:10:29;12.8;75.0
78694;SHT31;68029;51.978;5.646;2023-04-12T09:13:00;12.9;73.2
78694;SHT31;68029;51.978;5.646;2023-04-12T09:15:30;13.0;75.4
78694;SHT31;68029;51.978;5.646;2023-04-12T09:18:05;13.1;72.6
78694;SHT31;68029;51.978;5.646;2023-04-12T09:20:36;13.2;71.3
78694;SHT31;68029;51.978;5.646;2023-04-12T09:23:18;13.2;69.1
78694;SHT31;68029;51.978;5.646;2023-04-12T09:25:48;13.3;69.7
78694;SHT31;68029;51.978;5.646;2023-04-12T09:28:21;13.4;69.0
78694;SHT31;68029;51.978;5.646;2023-04-12T09:30:53;13.4;70.2
78694;SHT31;68029;51.978;5.646;2023-04-12T09:33:35;13.5;69.2
78694;SHT31;68029;51.978;5.646;2023-04-12T09:36:07;13.6;69.0
78694;SHT31;68029;51.978;5.646;2023-04-12T09:38:58;13.6;66.1
78694;SHT31;68029;51.978;5.646;2023-04-12T12:23:31;17.2;44.6
78694;SHT31;68029;51.978;5.646;2023-04-12T12:26:02;17.0;44.4
78694;SHT31;68029;51.978;5.646;2023-04-12T12:28:37;16.9;47.0
78694;SHT31;68029;51.978;5.646;2023-04-12T12:31:09;16.9;44.4
78694;SHT31;68029;51.978;5.646;2023-04-12T12:33:39;16.9;45.5
78694;SHT31;68029;51.978;5.646;2023-04-12T12:36:09;16.9;43.8
78694;SHT31;68029;51.978;5.646;2023-04-12T12:38:40;17.0;45.1
78694;SHT31;68029;51.978;5.646;2023-04-12T12:41:19;17.1;41.2
78694;SHT31;68029;51.978;5.646;2023-04-12T12:43:51;17.1;41.3
78694;SHT31;68029;51.978;5.646;2023-04-12T12:46:20;17.1;40.6
78694;SHT31;68029;51.978;5.646;2023-04-12T12:48:50;17.1;41.3
78694;SHT31;68029;51.978;5.646;2023-04-12T12:51:20;17.0;43.8
78694;SHT31;68029;51.978;5.646;2023-04-12T12:53:49;17.0;42.9
78694;SHT31;68029;51.978;5.646;2023-04-12T12:56:19;17.0;41.8
78694;SHT31;68029;51.978;5.646;2023-04-12T12:58:48;17.0;40.9
78694;SHT31;68029;51.978;5.646;2023-04-12T13:01:18;16.9;39.2
78694;SHT31;68029;51.978;5.646;2023-04-12T13:03:47;16.7;40.0
78694;SHT31;68029;51.978;5.646;2023-04-12T13:06:17;16.5;40.4
78694;SHT31;68029;51.978;5.646;2023-04-12T13:08:46;16.3;39.9
78694;SHT31;68029;51.978;5.646;2023-04-12T13:11:15;16.1;40.6
78694;SHT31;68029;51.978;5.646;2023-04-12T13:13:45;15.9;42.1
78694;SHT31;68029;51.978;5.646;2023-04-12T13:16:15;15.7;43.4
78694;SHT31;68029;51.978;5.646;2023-04-12T13:18:45;15.6;44.7
78694;SHT31;68029;51.978;5.646;2023-04-12T13:21:14;15.6;43.0
78694;SHT31;68029;51.978;5.646;2023-04-12T13:23:44;15.6;42.6
78694;SHT31;68029;51.978;5.646;2023-04-12T13:26:13;15.6;43.3
78694;SHT31;68029;51.978;5.646;2023-04-12T13:28:43;15.6;43.1
78694;SHT31;68029;51.978;5.646;2023-04-12T13:31:12;15.6;42.7
78694;SHT31;68029;51.978;5.646;2023-04-12T13:33:42;15.6;43.1
78694;SHT31;68029;51.978;5.646;2023-04-12T13:36:12;15.5;43.6
78694;SHT31;68029;51.978;5.646;2023-04-12T13:38:41;15.4;43.2
78694;SHT31;68029;51.978;5.646;2023-04-12T13:41:11;15.3;44.3
78694;SHT31;68029;51.978;5.646;2023-04-12T13:43:41;15.3;44.6
78694;SHT31;68029;51.978;5.646;2023-04-12T13:46:10;15.2;45.0
78694;SHT31;68029;51.978;5.646;2023-04-12T13:48:40;15.1;44.5
78694;SHT31;68029;51.978;5.646;2023-04-12T18:53:33;11.0;63.5
78694;SHT31;68029;51.978;5.646;2023-04-12T18:56:08;10.9;64.0
78694;SHT31;68029;51.978;5.646;2023-04-12T18:58:38;10.8;64.2
78694;SHT31;68029;51.978;5.646;2023-04-12T19:01:08;10.7;64.5
78694;SHT31;68029;51.978;5.646;2023-04-12T19:03:38;10.7;64.7
78694;SHT31;68029;51.978;5.646;2023-04-12T19:06:11;10.6;65.1
78694;SHT31;68029;51.978;5.646;2023-04-12T19:08:41;10.5;65.6
78694;SHT31;68029;51.978;5.646;2023-04-12T19:11:11;10.4;66.0
78694;SHT31;68029;51.978;5.646;2023-04-12T19:13:43;10.4;66.3
78694;SHT31;68029;51.978;5.646;2023-04-12T19:16:13;10.3;66.7
78694;SHT31;68029;51.978;5.646;2023-04-12T19:18:42;10.2;67.1
78694;SHT31;68029;51.978;5.646;2023-04-12T19:21:12;10.1;67.6
78694;SHT31;68029;51.978;5.646;2023-04-12T19:23:41;10.1;67.9
78694;SHT31;68029;51.978;5.646;2023-04-12T19:26:11;10.0;68.4
78694;SHT31;68029;51.978;5.646;2023-04-12T19:28:41;9.9;68.8
78694;SHT31;68029;51.978;5.646;2023-04-12T19:31:14;9.9;69.1
78694;SHT31;68029;51.978;5.646;2023-04-12T19:33:46;9.8;69.5
78694;SHT31;68029;51.978;5.646;2023-04-12T19:38:42;9.8;69.6
78694;SHT31;68029;51.978;5.646;2023-04-12T19:41:16;9.8;69.7
78694;SHT31;68029;51.978;5.646;2023-04-12T19:43:46;9.8;69.6
78694;SHT31;68029;51.978;5.646;2023-04-12T19:46:18;9.8;69.7
78694;SHT31;68029;51.978;5.646;2023-04-12T19:48:48;9.8;69.8
78694;SHT31;68029;51.978;5.646;2023-04-12T19:51:19;9.7;69.9
78694;SHT31;68029;51.978;5.646;2023-04-12T19:53:49;9.7;70.1
78694;SHT31;68029;51.978;5.646;2023-04-12T19:56:22;9.6;70.2
78694;SHT31;68029;51.978;5.646;2023-04-12T19:58:53;9.6;70.4
78694;SHT31;68029;51.978;5.646;2023-04-12T20:01:24;9.5;70.6
78694;SHT31;68029;51.978;5.646;2023-04-12T20:03:55;9.5;70.5
78694;SHT31;68029;51.978;5.646;2023-04-12T20:06:24;9.4;70.6
78694;SHT31;68029;51.978;5.646;2023-04-12T20:08:55;9.4;70.6
78694;SHT31;68029;51.978;5.646;2023-04-12T20:11:25;9.3;70.8
78694;SHT31;68029;51.978;5.646;2023-04-12T20:13:54;9.3;70.7
78694;SHT31;68029;51.978;5.646;2023-04-12T20:16:24;9.2;70.6
78694;SHT31;68029;51.978;5.646;2023-04-12T20:18:54;9.2;70.5
78694;SHT31;68029;51.978;5.646;2023-04-12T20:21:25;9.2;69.7
78694;SHT31;68029;51.978;5.646;2023-04-12T20:24:20;9.5;68.0
78694;SHT31;68029;51.978;5.646;2023-04-12T20:26:51;9.5;67.6
78694;SHT31;68029;51.978;5.646;2023-04-12T20:29:21;9.5;67.0
78694;SHT31;68029;51.978;5.646;2023-04-12T20:31:54;9.5;67.2
78694;SHT31;68029;51.978;5.646;2023-04-12T20:34:24;9.5;66.9
78694;SHT31;68029;51.978;5.646;2023-04-12T20:36:54;9.4;66.4
78694;SHT31;68029;51.978;5.646;2023-04-12T20:39:24;9.4;66.1
78694;SHT31;68029;51.978;5.646;2023-04-12T20:41:55;9.4;66.1
78694;SHT31;68029;51.978;5.646;2023-04-12T20:44:27;9.4;65.5
78694;SHT31;68029;51.978;5.646;2023-04-12T20:46:57;9.3;65.3
78694;SHT31;68029;51.978;5.646;2023-04-12T20:49:28;9.3;64.9
78694;SHT31;68029;51.978;5.646;2023-04-12T20:51:58;9.3;65.2
78694;SHT31;68029;51.978;5.646;2023-04-12T20:54:28;9.2;65.4
78694;SHT31;68029;51.978;5.646;2023-04-12T20:57:00;9.2;64.8
78694;SHT31;68029;51.978;5.646;2023-04-12T20:59:31;9.1;64.9
78694;SHT31;68029;51.978;5.646;2023-04-12T21:02:02;9.1;64.8
78694;SHT31;68029;51.978;5.646;2023-04-12T21:04:32;9.1;64.5
78694;SHT31;68029;51.978;5.646;2023-04-12T21:07:02;9.0;64.0
78694;SHT31;68029;51.978;5.646;2023-04-12T21:09:32;9.0;63.9
78694;SHT31;68029;51.978;5.646;2023-04-12T21:12:03;9.0;63.7
78694;SHT31;68029;51.978;5.646;2023-04-12T21:14:35;9.0;63.8
78694;SHT31;68029;51.978;5.646;2023-04-12T21:17:06;8.9;63.8
78694;SHT31;68029;51.978;5.646;2023-04-12T21:19:36;8.9;62.9
78694;SHT31;68029;51.978;5.646;2023-04-12T21:22:08;8.9;62.6
78694;SHT31;68029;51.978;5.646;2023-04-12T21:24:39;8.9;62.6
78694;SHT31;68029;51.978;5.646;2023-04-12T21:27:11;8.9;61.9
78694;SHT31;68029;51.978;5.646;2023-04-12T21:29:41;8.9;61.7
78694;SHT31;68029;51.978;5.646;2023-04-12T21:32:11;8.9;61.4
78694;SHT31;68029;51.978;5.646;2023-04-12T21:34:40;8.9;61.0
78694;SHT31;68029;51.978;5.646;2023-04-12T21:37:10;8.9;60.9
78694;SHT31;68029;51.978;5.646;2023-04-12T21:39:41;8.8;61.2
78694;SHT31;68029;51.978;5.646;2023-04-12T21:42:14;8.8;60.9
78694;SHT31;68029;51.978;5.646;2023-04-12T21:44:43;8.8;60.9
78694;SHT31;68029;51.978;5.646;2023-04-12T21:47:13;8.8;60.9
78694;SHT31;68029;51.978;5.646;2023-04-12T21:49:43;8.8;60.9
78694;SHT31;68029;51.978;5.646;2023-04-12T21:52:12;8.8;60.8
78694;SHT31;68029;51.978;5.646;2023-04-12T21:54:42;8.8;60.7
78694;SHT31;68029;51.978;5.646;2023-04-12T21:57:13;8.8;60.5
78694;SHT31;68029;51.978;5.646;2023-04-12T21:59:43;8.8;60.5
78694;SHT31;68029;51.978;5.646;2023-04-12T22:02:13;8.8;60.7
78694;SHT31;68029;51.978;5.646;2023-04-12T22:04:44;8.8;60.7
78694;SHT31;68029;51.978;5.646;2023-04-12T22:07:14;8.8;60.6
78694;SHT31;68029;51.978;5.646;2023-04-12T22:09:44;8.8;60.6
78694;SHT31;68029;51.978;5.646;2023-04-12T22:12:15;8.8;60.9
78694;SHT31;68029;51.978;5.646;2023-04-12T22:14:46;8.8;60.6
78694;SHT31;68029;51.978;5.646;2023-04-12T22:17:18;8.8;60.8
78694;SHT31;68029;51.978;5.646;2023-04-12T22:19:47;8.9;60.7
78694;SHT31;68029;51.978;5.646;2023-04-12T22:22:17;8.9;61.0
78694;SHT31;68029;51.978;5.646;2023-04-12T22:24:47;8.9;61.4
78694;SHT31;68029;51.978;5.646;2023-04-12T22:27:17;8.9;61.8
78694;SHT31;68029;51.978;5.646;2023-04-12T22:29:47;8.9;63.1
78694;SHT31;68029;51.978;5.646;2023-04-12T22:32:18;8.9;63.1
78694;SHT31;68029;51.978;5.646;2023-04-12T22:34:48;8.9;64.3
78694;SHT31;68029;51.978;5.646;2023-04-12T22:37:19;8.8;65.4
78694;SHT31;68029;51.978;5.646;2023-04-12T22:39:49;8.8;66.6
78694;SHT31;68029;51.978;5.646;2023-04-12T22:42:19;8.8;68.5
78694;SHT31;68029;51.978;5.646;2023-04-12T22:44:52;8.6;68.8
78694;SHT31;68029;51.978;5.646;2023-04-12T22:47:24;8.5;68.7
78694;SHT31;68029;51.978;5.646;2023-04-12T22:49:54;8.3;70.4
78694;SHT31;68029;51.978;5.646;2023-04-12T22:52:26;8.2;70.1
78694;SHT31;68029;51.978;5.646;2023-04-12T22:54:57;8.1;71.1
78694;SHT31;68029;51.978;5.646;2023-04-12T22:57:26;8.1;71.0
78694;SHT31;68029;51.978;5.646;2023-04-12T22:59:56;8.1;71.4
78694;SHT31;68029;51.978;5.646;2023-04-12T23:02:27;8.1;71.6
78694;SHT31;68029;51.978;5.646;2023-04-12T23:04:57;8.1;70.9
78694;SHT31;68029;51.978;5.646;2023-04-12T23:07:26;8.1;70.8
78694;SHT31;68029;51.978;5.646;2023-04-12T23:09:56;8.1;72.3
78694;SHT31;68029;51.978;5.646;2023-04-12T23:12:28;8.0;72.2
78694;SHT31;68029;51.978;5.646;2023-04-12T23:14:58;8.0;73.3
78694;SHT31;68029;51.978;5.646;2023-04-12T23:17:28;8.0;73.9
78694;SHT31;68029;51.978;5.646;2023-04-12T23:19:59;7.9;74.2
78694;SHT31;68029;51.978;5.646;2023-04-12T23:22:35;7.9;74.1
78694;SHT31;68029;51.978;5.646;2023-04-12T23:27:39;8.0;72.1
78694;SHT31;68029;51.978;5.646;2023-04-12T23:30:13;8.0;72.4
78694;SHT31;68029;51.978;5.646;2023-04-12T23:47:02;8.5;70.1
78694;SHT31;68029;51.978;5.646;2023-04-12T23:49:31;8.5;71.5
78694;SHT31;68029;51.978;5.646;2023-04-12T23:52:01;8.5;70.6
78694;SHT31;68029;51.978;5.646;2023-04-12T23:54:33;8.5;71.7
78694;SHT31;68029;51.978;5.646;2023-04-12T23:57:02;8.4;70.8
78694;SHT31;68029;51.978;5.646;2023-04-12T23:59:32;8.4;70.9
